createdAt,value
2022-09-06T00:01:43.005Z,11.67
2022-09-06T00:04:15.277Z,11.60
2022-09-06T00:06:43.502Z,11.53
2022-09-06T00:09:11.848Z,11.50
2022-09-06T00:11:39.542Z,11.41
2022-09-06T00:14:11.114Z,11.34
2022-09-06T00:16:41.506Z,11.29
2022-09-06T00:19:09.991Z,11.24
2022-09-06T00:21:38.082Z,11.19
2022-09-06T00:24:08.689Z,11.13
2022-09-06T00:26:37.647Z,11.10
2022-09-06T00:29:05.573Z,11.06
2022-09-06T00:31:34.829Z,11.00
2022-09-06T00:34:02.777Z,10.98
2022-09-06T00:36:33.359Z,10.89
2022-09-06T00:39:01.023Z,10.81
2022-09-06T00:41:28.785Z,10.75
2022-09-06T00:43:57.733Z,10.71
2022-09-06T00:46:28.070Z,10.68
2022-09-06T00:49:01.483Z,10.65
2022-09-06T00:51:34.401Z,10.61
2022-09-06T00:54:03.280Z,10.56
2022-09-06T00:56:34.905Z,10.48
2022-09-06T00:59:02.883Z,10.44
2022-09-06T01:01:31.391Z,10.40
2022-09-06T01:03:59.756Z,10.39
2022-09-06T01:06:39.435Z,10.34
2022-09-06T01:09:13.852Z,10.30
2022-09-06T01:11:48.183Z,10.29
2022-09-06T01:14:22.285Z,10.29
2022-09-06T01:16:54.467Z,10.26
2022-09-06T01:19:40.475Z,10.26
2022-09-06T01:22:14.398Z,10.23
2022-09-06T01:25:00.001Z,10.20
2022-09-06T01:27:42.289Z,10.17
2022-09-06T01:30:13.107Z,10.17
2022-09-06T01:32:51.010Z,10.15
2022-09-06T01:35:25.499Z,10.10
2022-09-06T01:37:53.739Z,10.09
2022-09-06T01:40:21.587Z,10.05
2022-09-06T01:42:50.496Z,9.99
2022-09-06T01:45:21.075Z,9.98
2022-09-06T01:47:54.765Z,9.95
2022-09-06T01:50:46.445Z,9.91
2022-09-06T01:53:22.335Z,9.89
2022-09-06T01:55:55.183Z,9.91
2022-09-06T01:58:39.157Z,9.89
2022-09-06T02:01:16.070Z,9.86
2022-09-06T02:03:49.429Z,9.85
2022-09-06T02:06:20.299Z,9.82
2022-09-06T02:08:50.076Z,9.75
2022-09-06T02:11:17.880Z,9.72
2022-09-06T02:13:49.323Z,9.69
2022-09-06T02:16:20.475Z,9.68
2022-09-06T02:18:51.212Z,9.67
2022-09-06T02:21:23.046Z,9.64
2022-09-06T02:23:53.128Z,9.62
2022-09-06T02:26:23.233Z,9.61
2022-09-06T02:28:53.982Z,9.61
2022-09-06T02:31:28.375Z,9.58
2022-09-06T02:33:58.939Z,9.54
2022-09-06T02:36:35.970Z,9.55
2022-09-06T02:39:04.819Z,9.54
2022-09-06T02:41:33.364Z,9.51
2022-09-06T02:44:01.392Z,9.51
2022-09-06T02:46:30.916Z,9.44
2022-09-06T02:48:58.747Z,9.41
2022-09-06T02:51:27.512Z,9.36
2022-09-06T02:53:55.470Z,9.32
2022-09-06T02:56:23.280Z,9.29
2022-09-06T02:58:51.393Z,9.29
2022-09-06T03:01:19.243Z,9.26
2022-09-06T03:03:49.422Z,9.27
2022-09-06T03:06:18.345Z,9.29
2022-09-06T03:08:46.086Z,9.26
2022-09-06T03:11:14.620Z,9.29
2022-09-06T03:13:42.373Z,9.26
2022-09-06T03:16:10.054Z,9.27
2022-09-06T03:18:37.908Z,9.26
2022-09-06T03:21:06.548Z,9.27
2022-09-06T03:23:34.499Z,9.30
2022-09-06T03:26:02.258Z,9.32
2022-09-06T03:28:32.537Z,9.34
2022-09-06T03:31:00.483Z,9.34
2022-09-06T03:33:28.390Z,9.37
2022-09-06T03:35:57.005Z,9.37
2022-09-06T03:38:25.930Z,9.37
2022-09-06T03:40:54.328Z,9.37
2022-09-06T03:43:25.809Z,9.37
2022-09-06T03:45:54.440Z,9.37
2022-09-06T03:48:25.490Z,9.40
2022-09-06T03:50:57.913Z,9.39
2022-09-06T03:53:26.779Z,9.39
2022-09-06T03:55:57.180Z,9.40
2022-09-06T03:58:25.625Z,9.40
2022-09-06T04:01:00.424Z,9.39
2022-09-06T04:03:28.060Z,9.43
2022-09-06T04:05:55.760Z,9.43
2022-09-06T04:08:23.617Z,9.46
2022-09-06T04:10:52.865Z,9.50
2022-09-06T04:13:21.250Z,9.51
2022-09-06T04:15:49.631Z,9.55
2022-09-06T04:18:17.324Z,9.55
2022-09-06T04:20:48.257Z,9.65
2022-09-06T04:23:16.048Z,9.68
2022-09-06T04:25:48.714Z,9.71
2022-09-06T04:28:17.946Z,9.77
2022-09-06T04:30:46.309Z,9.82
2022-09-06T04:33:14.679Z,9.86
2022-09-06T04:35:42.810Z,9.92
2022-09-06T04:38:10.630Z,9.94
2022-09-06T04:40:40.748Z,9.98
2022-09-06T04:43:08.726Z,10.05
2022-09-06T04:45:36.459Z,10.08
2022-09-06T04:48:04.552Z,10.12
2022-09-06T04:50:33.209Z,10.15
2022-09-06T04:53:05.973Z,10.17
2022-09-06T04:55:34.182Z,10.22
2022-09-06T04:58:02.963Z,10.24
2022-09-06T05:00:33.974Z,10.27
2022-09-06T05:03:01.731Z,10.30
2022-09-06T05:05:31.954Z,10.33
2022-09-06T05:07:59.953Z,10.36
2022-09-06T05:10:31.419Z,10.43
2022-09-06T05:12:59.457Z,10.60
2022-09-06T05:15:27.627Z,10.85
2022-09-06T05:18:02.704Z,11.03
2022-09-06T05:20:32.753Z,11.14
2022-09-06T05:23:01.144Z,11.36
2022-09-06T05:25:28.804Z,11.67
2022-09-06T05:27:59.357Z,12.00
2022-09-06T05:30:27.142Z,12.13
2022-09-06T05:32:55.537Z,12.17
2022-09-06T05:35:23.081Z,12.26
2022-09-06T05:37:50.745Z,12.31
2022-09-06T05:40:18.573Z,12.48
2022-09-06T05:42:46.171Z,13.03
2022-09-06T05:45:13.926Z,13.69
2022-09-06T05:47:42.739Z,14.06
2022-09-06T05:50:10.593Z,14.07
2022-09-06T05:52:39.211Z,13.96
2022-09-06T05:55:07.696Z,13.88
2022-09-06T05:57:35.427Z,13.76
2022-09-06T06:00:04.377Z,13.71
2022-09-06T06:02:40.104Z,13.66
2022-09-06T06:05:08.444Z,13.66
2022-09-06T06:07:37.875Z,13.64
2022-09-06T06:10:06.384Z,13.64
2022-09-06T06:12:34.074Z,13.65
2022-09-06T06:15:01.703Z,13.69
2022-09-06T06:17:30.045Z,13.76
2022-09-06T06:19:57.913Z,13.85
2022-09-06T06:22:25.505Z,14.02
2022-09-06T06:24:53.631Z,14.21
2022-09-06T06:27:21.283Z,14.59
2022-09-06T06:29:50.033Z,15.09
2022-09-06T06:32:17.714Z,16.48
2022-09-06T06:34:46.229Z,17.24
2022-09-06T06:37:13.837Z,17.30
2022-09-06T06:39:41.489Z,17.11
2022-09-06T06:42:09.431Z,16.97
2022-09-06T06:44:52.602Z,16.80
2022-09-06T06:47:20.525Z,16.61
2022-09-06T06:49:48.617Z,16.48
2022-09-06T06:52:16.400Z,16.37
2022-09-06T06:54:47.431Z,16.32
2022-09-06T06:57:16.397Z,16.62
2022-09-06T06:59:45.046Z,17.28
2022-09-06T07:02:15.479Z,17.55
2022-09-06T07:04:43.238Z,17.46
2022-09-06T07:12:47.947Z,16.89
2022-09-06T07:15:15.922Z,16.78
2022-09-06T07:17:43.936Z,16.72
2022-09-06T07:22:44.321Z,16.62
2022-09-06T07:25:14.497Z,16.59
2022-09-06T07:30:19.767Z,16.61
2022-09-06T07:32:47.781Z,16.61
2022-09-06T07:35:15.789Z,16.66
2022-09-06T07:37:43.462Z,16.72
2022-09-06T07:40:11.843Z,16.73
2022-09-06T07:42:39.765Z,16.80
2022-09-06T07:45:10.189Z,16.93
2022-09-06T07:53:16.708Z,17.14
2022-09-06T07:55:52.048Z,17.21
2022-09-06T07:58:20.127Z,17.31
2022-09-06T08:00:48.225Z,17.49
2022-09-06T08:03:15.965Z,17.68
2022-09-06T08:11:19.988Z,18.23
2022-09-06T08:13:49.966Z,18.42
2022-09-06T08:16:17.992Z,18.48
2022-09-06T08:18:50.125Z,18.75
2022-09-06T08:21:17.957Z,19.41
2022-09-06T08:23:48.119Z,20.43
2022-09-06T08:26:16.708Z,21.42
2022-09-06T08:28:44.915Z,22.18
2022-09-06T08:31:15.367Z,22.91
2022-09-06T08:33:43.553Z,23.55
2022-09-06T08:36:11.800Z,23.87
2022-09-06T08:38:40.282Z,24.79
2022-09-06T08:41:09.794Z,26.21
2022-09-06T08:43:38.358Z,27.83
2022-09-06T08:46:08.469Z,29.44
2022-09-06T08:48:39.151Z,30.58
2022-09-06T08:51:19.364Z,31.51
2022-09-06T08:53:47.237Z,32.34
2022-09-06T08:56:19.614Z,32.92
2022-09-06T08:58:56.830Z,33.24
2022-09-06T09:01:31.062Z,33.53
2022-09-06T09:04:03.054Z,33.69
2022-09-06T09:06:33.521Z,33.78
2022-09-06T09:09:04.142Z,33.82
2022-09-06T09:11:35.425Z,33.46
2022-09-06T09:14:05.499Z,33.43
2022-09-06T09:16:36.093Z,33.33
2022-09-06T09:19:05.288Z,33.13
2022-09-06T09:21:36.292Z,32.93
2022-09-06T09:24:08.517Z,32.40
2022-09-06T09:26:40.181Z,31.97
2022-09-06T09:29:12.243Z,31.61
2022-09-06T09:31:41.027Z,31.31
2022-09-06T09:34:13.855Z,31.16
2022-09-06T09:36:41.485Z,30.68
2022-09-06T09:39:10.835Z,29.92
2022-09-06T09:41:41.063Z,29.44
2022-09-06T09:44:17.295Z,29.30
2022-09-06T09:46:45.458Z,29.21
2022-09-06T09:49:28.332Z,29.00
2022-09-06T09:52:05.230Z,28.87
2022-09-06T09:54:35.875Z,28.89
2022-09-06T09:57:11.995Z,28.94
2022-09-06T09:59:43.153Z,28.93
2022-09-06T10:02:18.671Z,28.99
2022-09-06T10:04:50.901Z,29.08
2022-09-06T10:07:21.201Z,29.08
2022-09-06T10:09:50.384Z,29.00
2022-09-06T10:12:19.009Z,28.87
2022-09-06T10:14:47.936Z,28.75
2022-09-06T10:17:19.858Z,28.73
2022-09-06T10:19:48.376Z,28.78
2022-09-06T10:22:31.222Z,28.69
2022-09-06T10:25:14.073Z,28.56
2022-09-06T10:28:01.598Z,28.52
2022-09-06T10:30:39.763Z,28.46
2022-09-06T10:33:14.762Z,28.41
2022-09-06T10:35:42.541Z,28.03
2022-09-06T10:38:19.564Z,27.77
2022-09-06T10:40:52.010Z,27.25
2022-09-06T10:43:20.492Z,26.96
2022-09-06T10:45:53.971Z,26.87
2022-09-06T10:48:24.523Z,26.87
2022-09-06T10:50:55.000Z,26.90
2022-09-06T10:53:38.028Z,27.03
2022-09-06T10:56:08.414Z,27.10
2022-09-06T11:01:36.276Z,27.21
2022-09-06T11:04:12.472Z,27.07
2022-09-06T11:06:44.184Z,27.00
2022-09-06T11:09:14.180Z,26.90
2022-09-06T11:11:44.122Z,26.72
2022-09-06T11:14:13.131Z,26.65
2022-09-06T11:16:44.850Z,26.46
2022-09-06T11:19:17.180Z,26.23
2022-09-06T11:22:12.238Z,26.17
2022-09-06T11:24:48.750Z,26.32
2022-09-06T11:27:22.020Z,26.38
2022-09-06T11:29:55.862Z,26.45
2022-09-06T11:32:32.853Z,26.42
2022-09-06T11:35:01.500Z,26.32
2022-09-06T11:37:32.197Z,26.20
2022-09-06T11:43:14.808Z,25.97
2022-09-06T11:45:45.243Z,25.96
2022-09-06T11:48:37.185Z,25.96
2022-09-06T11:51:06.603Z,25.87
2022-09-06T11:53:35.963Z,25.64
2022-09-06T11:56:12.630Z,25.55
2022-09-06T11:58:47.829Z,25.49
2022-09-06T12:01:36.487Z,25.32
2022-09-06T12:04:07.374Z,25.09
2022-09-06T12:06:39.182Z,24.97
2022-09-06T12:09:25.050Z,24.80
2022-09-06T12:11:53.236Z,24.70
2022-09-06T12:14:28.920Z,24.62
2022-09-06T12:17:27.481Z,24.49
2022-09-06T12:19:59.120Z,24.38
2022-09-06T12:22:45.121Z,24.37
2022-09-06T12:25:26.926Z,24.39
2022-09-06T12:27:56.368Z,24.42
2022-09-06T12:30:33.913Z,24.39
2022-09-06T12:33:02.546Z,24.39
2022-09-06T12:38:24.765Z,24.34
2022-09-06T12:40:57.731Z,24.25
2022-09-06T12:43:26.676Z,24.12
2022-09-06T12:45:54.426Z,24.04
2022-09-06T12:48:31.360Z,23.86
2022-09-06T12:51:03.143Z,23.58
2022-09-06T12:53:34.498Z,23.39
2022-09-06T12:56:06.268Z,23.31
2022-09-06T12:58:34.479Z,23.27
2022-09-06T13:01:06.287Z,23.20
2022-09-06T13:03:38.173Z,23.10
2022-09-06T13:06:06.236Z,23.00
2022-09-06T13:08:36.331Z,22.87
2022-09-06T13:11:08.424Z,22.73
2022-09-06T13:13:36.739Z,22.59
2022-09-06T13:16:04.690Z,22.49
2022-09-06T13:18:34.829Z,22.43
2022-09-06T13:21:04.323Z,22.36
2022-09-06T13:23:41.668Z,22.29
2022-09-06T13:26:09.582Z,22.13
2022-09-06T13:41:09.681Z,21.80
2022-09-06T13:43:46.314Z,21.83
2022-09-06T13:46:18.544Z,21.87
2022-09-06T13:48:50.723Z,21.86
2022-09-06T13:51:23.551Z,21.83
2022-09-06T13:54:10.866Z,21.77
2022-09-06T13:56:45.086Z,21.67
2022-09-06T13:59:18.315Z,21.55
2022-09-06T14:01:56.140Z,21.49
2022-09-06T14:04:28.262Z,21.46
2022-09-06T14:07:03.243Z,21.45
2022-09-06T14:09:35.762Z,21.46
2022-09-06T14:12:09.416Z,21.46
2022-09-06T14:14:41.585Z,21.49
2022-09-06T14:17:13.637Z,21.48
2022-09-06T14:19:46.307Z,21.48
2022-09-06T14:22:18.356Z,21.42
2022-09-06T14:24:51.329Z,21.37
2022-09-06T14:27:23.268Z,21.27
2022-09-06T14:29:55.975Z,21.22
2022-09-06T14:32:28.136Z,21.18
2022-09-06T14:35:02.292Z,21.11
2022-09-06T14:37:35.142Z,21.04
2022-09-06T14:40:08.936Z,20.93
2022-09-06T14:42:46.598Z,20.90
2022-09-06T14:45:22.440Z,20.84
2022-09-06T14:47:54.374Z,20.80
2022-09-06T14:50:26.895Z,20.79
2022-09-06T14:52:59.528Z,20.76
2022-09-06T14:55:35.174Z,20.70
2022-09-06T14:58:07.204Z,20.66
2022-09-06T15:00:39.238Z,20.63
2022-09-06T15:03:11.216Z,20.59
2022-09-06T15:05:44.876Z,20.55
2022-09-06T15:08:17.049Z,20.49
2022-09-06T15:10:58.073Z,20.45
2022-09-06T15:13:30.641Z,20.35
2022-09-06T15:16:04.188Z,20.29
2022-09-06T15:18:36.537Z,20.20
2022-09-06T15:21:16.335Z,20.11
2022-09-06T15:23:48.672Z,20.07
2022-09-06T15:26:21.798Z,19.97
2022-09-06T15:28:53.898Z,19.91
2022-09-06T15:31:26.502Z,19.90
2022-09-06T15:33:59.450Z,19.84
2022-09-06T15:36:40.914Z,19.77
2022-09-06T15:39:13.527Z,19.72
2022-09-06T15:41:46.183Z,19.66
2022-09-06T15:44:20.897Z,19.58
2022-09-06T15:46:55.051Z,19.48
2022-09-06T15:49:28.516Z,19.41
2022-09-06T15:52:03.018Z,19.35
2022-09-06T15:54:52.620Z,19.30
2022-09-06T15:57:24.680Z,19.25
2022-09-06T15:59:56.785Z,19.21
2022-09-06T16:02:28.680Z,19.15
2022-09-06T16:05:01.385Z,19.08
2022-09-06T16:07:33.262Z,19.03
2022-09-06T16:10:05.523Z,18.97
2022-09-06T16:12:37.456Z,18.94
2022-09-06T16:15:11.502Z,18.87
2022-09-06T16:17:43.667Z,18.80
2022-09-06T16:20:16.187Z,18.70
2022-09-06T16:22:49.757Z,18.60
2022-09-06T16:25:22.194Z,18.55
2022-09-06T16:27:54.094Z,18.47
2022-09-06T16:30:26.116Z,18.38
2022-09-06T16:32:58.558Z,18.25
2022-09-06T16:35:31.267Z,18.14
2022-09-06T16:38:07.273Z,18.03
2022-09-06T16:40:47.098Z,17.90
2022-09-06T16:43:19.657Z,17.79
2022-09-06T16:46:01.923Z,17.66
2022-09-06T16:48:38.497Z,17.53
2022-09-06T16:51:15.487Z,17.38
2022-09-06T16:53:49.846Z,17.23
2022-09-06T16:56:24.435Z,17.09
2022-09-06T16:58:59.049Z,16.92
2022-09-06T17:01:33.709Z,16.79
2022-09-06T17:04:07.059Z,16.62
2022-09-06T17:06:44.941Z,16.47
2022-09-06T17:09:19.496Z,16.28
2022-09-06T17:11:52.631Z,16.14
2022-09-06T17:14:24.630Z,16.01
2022-09-06T17:17:05.884Z,15.90
2022-09-06T17:19:40.913Z,15.75
2022-09-06T17:22:14.238Z,15.65
2022-09-06T17:24:47.751Z,15.51
2022-09-06T17:27:20.113Z,15.38
2022-09-06T17:29:52.544Z,15.25
2022-09-06T17:32:24.877Z,15.11
2022-09-06T17:34:57.116Z,14.95
2022-09-06T17:37:29.929Z,14.82
2022-09-06T17:40:02.449Z,14.74
2022-09-06T17:42:35.324Z,14.62
2022-09-06T17:45:10.931Z,14.51
2022-09-06T17:47:43.596Z,14.41
2022-09-06T17:50:15.962Z,14.25
2022-09-06T17:52:51.318Z,14.13
2022-09-06T17:55:24.376Z,13.99
2022-09-06T17:57:56.541Z,13.85
2022-09-06T18:00:32.121Z,13.76
2022-09-06T18:03:04.499Z,13.66
2022-09-06T18:05:40.544Z,13.59
2022-09-06T18:08:13.314Z,13.51
2022-09-06T18:10:45.654Z,13.41
2022-09-06T18:13:17.892Z,13.31
2022-09-06T18:15:50.445Z,13.24
2022-09-06T18:18:22.913Z,13.10
2022-09-06T18:20:55.289Z,13.02
2022-09-06T18:23:31.785Z,12.91
2022-09-06T18:26:06.587Z,12.82
2022-09-06T18:28:40.291Z,12.76
2022-09-06T18:31:15.797Z,12.68
2022-09-06T18:33:47.943Z,12.61
2022-09-06T18:36:21.212Z,12.55
2022-09-06T18:38:53.959Z,12.47
2022-09-06T18:41:44.203Z,12.39
2022-09-06T18:44:17.090Z,12.33
2022-09-06T18:46:50.062Z,12.23
2022-09-06T18:49:22.064Z,12.20
2022-09-06T18:51:54.841Z,12.16
2022-09-06T18:54:28.180Z,12.09
2022-09-06T18:57:03.784Z,12.05
2022-09-06T18:59:36.468Z,12.03
2022-09-06T19:02:09.245Z,11.97
2022-09-06T19:04:41.713Z,11.96
2022-09-06T19:07:13.953Z,11.93
2022-09-06T19:09:51.146Z,11.84
2022-09-06T19:12:23.259Z,11.79
2022-09-06T19:14:55.213Z,11.75
2022-09-06T19:17:30.249Z,11.74
2022-09-06T19:20:04.627Z,11.67
2022-09-06T19:22:40.303Z,11.61
2022-09-06T19:25:12.676Z,11.58
2022-09-06T19:27:48.651Z,11.53
2022-09-06T19:30:20.984Z,11.51
2022-09-06T19:32:53.491Z,11.44
2022-09-06T19:35:25.632Z,11.40
2022-09-06T19:37:58.023Z,11.39
2022-09-06T19:40:32.298Z,11.33
2022-09-06T19:43:05.070Z,11.33
2022-09-06T19:45:40.790Z,11.26
2022-09-06T19:48:13.070Z,11.24
2022-09-06T19:50:45.295Z,11.17
2022-09-06T19:53:17.420Z,11.10
2022-09-06T19:55:49.423Z,11.07
2022-09-06T19:58:21.494Z,11.00
2022-09-06T20:00:54.072Z,10.95
2022-09-06T20:03:26.069Z,10.86
2022-09-06T20:06:01.269Z,10.82
2022-09-06T20:08:34.990Z,10.74
2022-09-06T20:11:09.242Z,10.65
2022-09-06T20:13:42.998Z,10.57
2022-09-06T20:16:16.156Z,10.52
2022-09-06T20:18:49.158Z,10.52
2022-09-06T20:21:21.252Z,10.44
2022-09-06T20:23:55.287Z,10.44
2022-09-06T20:26:31.363Z,10.41
2022-09-06T20:29:07.511Z,10.37
2022-09-06T20:31:43.993Z,10.34
2022-09-06T20:34:19.514Z,10.30
2022-09-06T20:36:51.519Z,10.24
2022-09-06T20:39:24.382Z,10.17
2022-09-06T20:41:56.621Z,10.08
2022-09-06T20:44:28.694Z,10.01
2022-09-06T20:47:02.395Z,9.98
2022-09-06T20:49:37.188Z,9.92
2022-09-06T20:52:09.450Z,9.85
2022-09-06T20:54:41.497Z,9.77
2022-09-06T20:57:13.698Z,9.72
2022-09-06T20:59:47.425Z,9.62
2022-09-06T21:02:19.703Z,9.57
2022-09-06T21:04:52.462Z,9.51
2022-09-06T21:07:25.018Z,9.44
2022-09-06T21:09:57.404Z,9.40
2022-09-06T21:12:29.840Z,9.34
2022-09-06T21:15:03.259Z,9.29
2022-09-06T21:17:35.979Z,9.26
2022-09-06T21:20:09.897Z,9.21
2022-09-06T21:22:42.457Z,9.19
2022-09-06T21:25:14.515Z,9.15
2022-09-06T21:27:46.528Z,9.08
2022-09-06T21:30:19.078Z,9.01
2022-09-06T21:32:54.033Z,8.96
2022-09-06T21:35:26.051Z,8.94
2022-09-06T21:37:58.029Z,8.87
2022-09-06T21:40:30.242Z,8.82
2022-09-06T21:43:03.343Z,8.78
2022-09-06T21:45:41.078Z,8.74
2022-09-06T21:48:15.901Z,8.75
2022-09-06T21:50:49.710Z,8.74
2022-09-06T21:53:24.133Z,8.69
2022-09-06T21:56:02.188Z,8.69
2022-09-06T21:58:35.625Z,8.67
2022-09-06T22:01:08.952Z,8.64
2022-09-06T22:03:42.055Z,8.63
2022-09-06T22:06:17.013Z,8.63
2022-09-06T22:08:50.388Z,8.61
2022-09-06T22:11:25.585Z,8.57
2022-09-06T22:14:02.003Z,8.54
2022-09-06T22:16:37.527Z,8.54
2022-09-06T22:19:11.610Z,8.54
2022-09-06T22:21:44.353Z,8.56
2022-09-06T22:24:21.587Z,8.54
2022-09-06T22:26:54.409Z,8.49
2022-09-06T22:29:27.817Z,8.50
2022-09-06T22:32:00.371Z,8.49
2022-09-06T22:34:33.896Z,8.47
2022-09-06T22:37:07.196Z,8.44
2022-09-06T22:39:42.615Z,8.43
2022-09-06T22:42:16.178Z,8.40
2022-09-06T22:44:50.193Z,8.36
2022-09-06T22:47:23.937Z,8.33
2022-09-06T22:49:59.509Z,8.29
2022-09-06T22:52:34.378Z,8.25
2022-09-06T22:55:10.118Z,8.23
2022-09-06T22:57:42.805Z,8.18
2022-09-06T23:00:18.867Z,8.13
2022-09-06T23:02:54.134Z,8.11
2022-09-06T23:05:27.300Z,8.09
2022-09-06T23:08:01.873Z,8.05
2022-09-06T23:10:40.241Z,8.02
2022-09-06T23:13:17.927Z,7.98
2022-09-06T23:15:50.768Z,7.93
2022-09-06T23:18:24.227Z,7.88
2022-09-06T23:20:57.513Z,7.88
2022-09-06T23:23:32.232Z,7.85
2022-09-06T23:26:13.221Z,7.83
2022-09-06T23:28:46.943Z,7.78
2022-09-06T23:31:21.229Z,7.78
2022-09-06T23:33:57.139Z,7.73
2022-09-06T23:36:37.473Z,7.70
2022-09-06T23:39:13.025Z,7.67
2022-09-06T23:41:46.310Z,7.66
2022-09-06T23:44:18.807Z,7.60
2022-09-06T23:46:52.322Z,7.57
2022-09-06T23:49:28.182Z,7.51
2022-09-06T23:52:00.867Z,7.49
2022-09-06T23:54:37.235Z,7.47
2022-09-06T23:57:10.173Z,7.46
2022-09-06T23:59:42.836Z,7.40
